createdAt,value
2023-01-11T00:01:55.313Z,101211.63
2023-01-11T00:07:03.140Z,101225.41
2023-01-11T00:12:12.754Z,101234.00
2023-01-11T00:17:19.280Z,101224.53
2023-01-11T00:22:27.518Z,101221.16
2023-01-11T00:27:35.572Z,101212.50
2023-01-11T00:32:42.085Z,101212.53
2023-01-11T00:37:49.910Z,101213.34
2023-01-11T00:43:13.712Z,101211.69
2023-01-11T00:48:19.965Z,101222.91
2023-01-11T00:53:27.787Z,101241.84
2023-01-11T00:58:34.692Z,101237.53
2023-01-11T01:03:41.125Z,101238.44
2023-01-11T01:08:48.830Z,101241.88
2023-01-11T01:14:13.045Z,101235.00
2023-01-11T01:19:19.686Z,101241.91
2023-01-11T01:24:29.143Z,101240.19
2023-01-11T01:29:35.804Z,101233.28
2023-01-11T01:34:42.116Z,101234.16
2023-01-11T01:39:50.007Z,101227.31
2023-01-11T01:45:03.733Z,101224.72
2023-01-11T01:50:17.694Z,101222.97
2023-01-11T01:55:30.850Z,101225.53
2023-01-11T02:00:41.080Z,101228.16
2023-01-11T02:05:48.414Z,101231.59
2023-01-11T02:10:57.213Z,101229.06
2023-01-11T02:16:09.513Z,101227.34
2023-01-11T02:21:27.952Z,101227.34
2023-01-11T02:27:27.951Z,101217.06
2023-01-11T02:32:48.962Z,101211.84
2023-01-11T02:38:07.124Z,101213.63
2023-01-11T02:43:37.551Z,101211.91
2023-01-11T02:48:56.282Z,101207.59
2023-01-11T02:54:07.704Z,101211.06
2023-01-11T02:59:19.029Z,101209.31
2023-01-11T03:04:33.150Z,101220.53
2023-01-11T03:09:52.555Z,101220.53
2023-01-11T03:15:16.916Z,101222.31
2023-01-11T03:20:30.706Z,101221.44
2023-01-11T03:25:49.956Z,101204.22
2023-01-11T03:31:04.239Z,101202.53
2023-01-11T03:36:36.725Z,101196.53
2023-01-11T03:41:45.323Z,101188.72
2023-01-11T03:46:57.537Z,101195.66
2023-01-11T03:52:10.186Z,101193.13
2023-01-11T03:57:22.336Z,101189.63
2023-01-11T04:02:35.934Z,101190.53
2023-01-11T04:07:44.304Z,101191.38
2023-01-11T04:12:51.317Z,101179.34
2023-01-11T04:18:05.348Z,101176.75
2023-01-11T04:23:13.244Z,101180.19
2023-01-11T04:28:19.755Z,101179.34
2023-01-11T04:33:26.940Z,101183.69
2023-01-11T04:38:36.396Z,101179.38
2023-01-11T04:43:43.542Z,101175.94
2023-01-11T04:48:50.050Z,101175.06
2023-01-11T04:53:57.779Z,101174.25
2023-01-11T04:59:04.466Z,101177.69
2023-01-11T05:04:13.324Z,101177.69
2023-01-11T05:09:21.841Z,101180.28
2023-01-11T05:14:29.057Z,101178.53
2023-01-11T05:19:35.336Z,101172.53
2023-01-11T05:24:43.943Z,101170.78
2023-01-11T05:29:51.948Z,101180.31
2023-01-11T05:34:58.412Z,101178.59
2023-01-11T05:40:08.462Z,101169.19
2023-01-11T05:45:32.280Z,101164.00
2023-01-11T05:50:38.854Z,101159.66
2023-01-11T05:55:56.039Z,101162.25
2023-01-11T06:01:02.527Z,101157.09
2023-01-11T06:06:10.434Z,101145.88
2023-01-11T06:11:18.729Z,101146.75
2023-01-11T06:16:26.351Z,101152.81
2023-01-11T06:21:33.349Z,101142.47
2023-01-11T06:26:41.731Z,101124.34
2023-01-11T06:31:48.896Z,101133.00
2023-01-11T06:36:55.365Z,101140.75
2023-01-11T06:42:03.567Z,101145.91
2023-01-11T06:47:10.031Z,101143.34
2023-01-11T06:52:16.896Z,101145.09
2023-01-11T06:57:25.017Z,101141.66
2023-01-11T07:02:31.452Z,101133.94
2023-01-11T07:07:38.258Z,101130.47
2023-01-11T07:12:46.034Z,101134.78
2023-01-11T07:17:57.495Z,101148.63
2023-01-11T07:23:03.880Z,101143.44
2023-01-11T07:28:12.877Z,101139.16
2023-01-11T07:33:18.914Z,101138.31
2023-01-11T07:38:25.409Z,101134.84
2023-01-11T07:43:33.845Z,101129.69
2023-01-11T07:48:40.130Z,101129.69
2023-01-11T07:53:46.320Z,101131.44
2023-01-11T07:58:54.333Z,101133.19
2023-01-11T08:04:01.186Z,101141.78
2023-01-11T08:09:07.861Z,101146.13
2023-01-11T08:14:33.336Z,101147.84
2023-01-11T08:19:39.793Z,101137.53
2023-01-11T08:24:46.449Z,101134.09
2023-01-11T08:29:54.524Z,101136.69
2023-01-11T08:35:00.920Z,101138.44
2023-01-11T08:40:12.945Z,101135.88
2023-01-11T08:45:21.290Z,101133.31
2023-01-11T08:50:28.319Z,101134.19
2023-01-11T08:55:35.042Z,101129.03
2023-01-11T09:00:45.306Z,101114.41
2023-01-11T09:05:52.280Z,101108.38
2023-01-11T09:11:02.850Z,101095.41
2023-01-11T09:16:11.109Z,101096.31
2023-01-11T09:21:17.641Z,101091.13
2023-01-11T09:26:24.021Z,101080.81
2023-01-11T09:31:32.125Z,101086.00
2023-01-11T09:36:40.519Z,101085.13
2023-01-11T09:42:32.661Z,101086.03
2023-01-11T09:47:44.066Z,101080.88
2023-01-11T09:52:55.141Z,101073.97
2023-01-11T09:58:39.409Z,101064.50
2023-01-11T10:04:41.110Z,101065.34
2023-01-11T10:18:40.286Z,101054.16
2023-01-11T10:21:09.903Z,101042.09
2023-01-11T10:26:28.637Z,101046.41
2023-01-11T10:31:49.603Z,101046.41
2023-01-11T10:37:24.231Z,101039.53
2023-01-11T10:42:35.454Z,101033.50
2023-01-11T10:47:46.837Z,101037.84
2023-01-11T10:53:03.187Z,101023.19
2023-01-11T10:58:28.586Z,101018.00
2023-01-11T11:04:09.269Z,101008.53
2023-01-11T11:09:26.486Z,101004.19
2023-01-11T11:14:41.237Z,100995.56
2023-01-11T11:19:47.845Z,100993.00
2023-01-11T11:25:05.450Z,100968.88
2023-01-11T11:30:14.979Z,100963.69
2023-01-11T11:35:39.052Z,100975.78
2023-01-11T11:40:57.501Z,100970.59
2023-01-11T11:46:06.569Z,100960.28
2023-01-11T11:51:27.022Z,100948.19
2023-01-11T11:56:38.411Z,100952.53
2023-01-11T12:01:48.689Z,100934.41
2023-01-11T12:07:10.067Z,100919.75
2023-01-11T12:12:26.899Z,100913.72
2023-01-11T12:17:35.705Z,100909.41
2023-01-11T12:22:42.178Z,100893.03
2023-01-11T12:28:03.577Z,100888.72
2023-01-11T12:33:30.233Z,100886.97
2023-01-11T12:38:49.319Z,100865.38
2023-01-11T12:44:06.548Z,100864.53
2023-01-11T12:49:32.957Z,100866.25
2023-01-11T12:55:02.431Z,100862.78
2023-01-11T13:00:44.082Z,100859.34
2023-01-11T13:06:03.579Z,100847.28
2023-01-11T13:11:35.431Z,100839.50
2023-01-11T13:16:52.783Z,100830.88
2023-01-11T13:22:04.897Z,100833.44
2023-01-11T13:27:24.939Z,100828.22
2023-01-11T13:32:38.021Z,100819.63
2023-01-11T13:37:53.673Z,100810.97
2023-01-11T13:43:07.179Z,100808.38
2023-01-11T13:48:23.625Z,100822.16
2023-01-11T13:53:43.582Z,100815.25
2023-01-11T13:58:57.285Z,100817.81
2023-01-11T14:04:13.070Z,100820.34
2023-01-11T14:09:45.680Z,100826.38
2023-01-11T14:15:19.680Z,100825.47
2023-01-11T14:20:36.875Z,100822.00
2023-01-11T14:26:07.725Z,100806.47
2023-01-11T14:31:50.081Z,100807.31
2023-01-11T14:37:47.907Z,100802.97
2023-01-11T14:43:41.154Z,100797.78
2023-01-11T14:49:03.250Z,100797.75
2023-01-11T14:54:17.468Z,100808.03
2023-01-11T14:59:44.394Z,100790.78
2023-01-11T15:05:10.415Z,100791.63
2023-01-11T15:10:51.015Z,100782.97
2023-01-11T15:16:29.417Z,100776.94
2023-01-11T15:21:42.373Z,100782.91
2023-01-11T15:26:52.552Z,100776.03
2023-01-11T15:32:19.794Z,100774.28
2023-01-11T15:37:50.286Z,100774.28
2023-01-11T15:44:00.344Z,100770.81
2023-01-11T15:49:51.516Z,100769.97
2023-01-11T15:55:48.633Z,100764.81
2023-01-11T16:01:25.194Z,100755.31
2023-01-11T16:06:48.279Z,100749.28
2023-01-11T16:12:15.827Z,100749.28
2023-01-11T16:17:26.323Z,100746.66
2023-01-11T16:22:33.571Z,100741.47
2023-01-11T16:27:40.775Z,100741.47
2023-01-11T16:32:48.927Z,100742.34
2023-01-11T16:37:59.226Z,100731.16
2023-01-11T16:43:18.794Z,100726.88
2023-01-11T16:48:28.860Z,100740.59
2023-01-11T16:53:38.073Z,100739.72
2023-01-11T16:59:04.518Z,100746.63
2023-01-11T17:04:31.425Z,100750.09
2023-01-11T17:09:38.504Z,100738.91
2023-01-11T17:15:00.490Z,100735.50
2023-01-11T17:20:21.571Z,100732.06
2023-01-11T17:25:43.511Z,100723.50
2023-01-11T17:30:54.019Z,100716.59
2023-01-11T17:36:03.463Z,100718.31
2023-01-11T17:41:32.428Z,100705.41
2023-01-11T17:46:41.178Z,100697.69
2023-01-11T17:51:49.207Z,100695.97
2023-01-11T17:57:01.926Z,100696.78
2023-01-11T18:02:15.549Z,100696.78
2023-01-11T18:07:23.627Z,100700.22
2023-01-11T18:12:34.036Z,100691.66
2023-01-11T18:17:42.785Z,100690.78
2023-01-11T18:23:05.237Z,100688.22
2023-01-11T18:28:30.627Z,100695.94
2023-01-11T18:33:42.137Z,100693.34
2023-01-11T18:38:51.119Z,100686.44
2023-01-11T18:43:58.909Z,100683.88
2023-01-11T18:49:06.811Z,100679.56
2023-01-11T18:54:18.938Z,100686.44
2023-01-11T18:59:26.032Z,100679.56
2023-01-11T19:04:33.535Z,100670.97
2023-01-11T19:09:42.678Z,100659.75
2023-01-11T19:14:51.393Z,100655.47
2023-01-11T19:19:59.870Z,100644.31
2023-01-11T19:25:10.688Z,100646.88
2023-01-11T19:30:19.208Z,100648.59
2023-01-11T19:35:26.872Z,100637.41
2023-01-11T19:40:36.895Z,100644.31
2023-01-11T19:45:44.721Z,100641.72
2023-01-11T19:50:52.287Z,100634.84
2023-01-11T19:56:05.710Z,100635.72
2023-01-11T20:01:15.137Z,100631.38
2023-01-11T20:06:24.089Z,100633.97
2023-01-11T20:11:33.167Z,100633.13
2023-01-11T20:16:39.909Z,100628.84
2023-01-11T20:21:50.214Z,100623.66
2023-01-11T20:27:00.497Z,100626.22
2023-01-11T20:32:31.100Z,100630.56
2023-01-11T20:37:36.431Z,100628.78
2023-01-11T20:42:45.798Z,100627.97
2023-01-11T20:47:53.313Z,100619.38
2023-01-11T20:53:01.414Z,100612.50
2023-01-11T20:58:10.311Z,100603.03
2023-01-11T21:03:20.202Z,100593.56
2023-01-11T21:08:27.246Z,100585.00
2023-01-11T21:13:35.668Z,100575.53
2023-01-11T21:18:44.122Z,100577.25
2023-01-11T21:23:51.089Z,100585.88
2023-01-11T21:29:01.395Z,100585.00
2023-01-11T21:34:08.309Z,100588.47
2023-01-11T21:39:17.010Z,100582.44
2023-01-11T21:44:30.077Z,100579.84
2023-01-11T21:49:36.552Z,100579.03
2023-01-11T21:54:43.737Z,100579.00
2023-01-11T21:59:54.297Z,100583.31
2023-01-11T22:05:00.800Z,100592.81
2023-01-11T22:10:08.135Z,100588.50
2023-01-11T22:15:16.123Z,100585.06
2023-01-11T22:20:23.991Z,100584.22
2023-01-11T22:25:30.528Z,100582.50
2023-01-11T22:30:38.588Z,100578.22
2023-01-11T22:35:54.895Z,100583.38
2023-01-11T22:41:02.177Z,100572.19
2023-01-11T22:46:14.275Z,100583.38
2023-01-11T22:51:23.755Z,100579.94
2023-01-11T22:56:30.941Z,100586.84
2023-01-11T23:01:40.766Z,100595.44
2023-01-11T23:06:47.629Z,100592.88
2023-01-11T23:12:11.771Z,100591.13
2023-01-11T23:17:19.711Z,100588.56
2023-01-11T23:22:25.920Z,100577.38
2023-01-11T23:27:32.211Z,100579.13
2023-01-11T23:32:42.635Z,100575.66
2023-01-11T23:37:51.070Z,100569.66
2023-01-11T23:43:01.689Z,100570.50
2023-01-11T23:48:09.885Z,100570.50
2023-01-11T23:53:18.052Z,100579.97
2023-01-11T23:58:24.544Z,100584.25
